createdAt,value
2018-05-31T00:00:01.884Z,21.37
2018-05-31T00:00:06.034Z,21.4
2018-05-31T00:00:10.339Z,21.38
2018-05-31T00:00:14.468Z,21.43
2018-05-31T00:00:18.843Z,21.4
2018-05-31T00:00:23.093Z,21.43
2018-05-31T00:00:27.229Z,21.38
2018-05-31T00:00:31.369Z,21.4
2018-05-31T00:00:35.414Z,21.38
2018-05-31T00:00:39.557Z,21.37
2018-05-31T00:00:43.949Z,21.37
2018-05-31T00:00:48.315Z,21.36
2018-05-31T00:00:52.495Z,21.34
2018-05-31T00:00:56.779Z,21.34
2018-05-31T00:01:01.745Z,21.38
2018-05-31T00:01:07.181Z,21.37
2018-05-31T00:01:11.448Z,21.33
2018-05-31T00:01:15.831Z,21.31
2018-05-31T00:01:19.974Z,21.31
2018-05-31T00:01:24.127Z,21.33
2018-05-31T00:01:28.395Z,21.28
2018-05-31T00:01:32.668Z,21.3
2018-05-31T00:01:37.050Z,21.3
2018-05-31T00:01:41.329Z,21.27
2018-05-31T00:01:45.601Z,21.3
2018-05-31T00:01:49.973Z,21.36
2018-05-31T00:01:54.120Z,21.33
2018-05-31T00:01:58.411Z,21.27
2018-05-31T00:02:02.445Z,21.26
2018-05-31T00:02:06.480Z,21.3
2018-05-31T00:02:13.076Z,21.28
2018-05-31T00:02:17.101Z,21.3
2018-05-31T00:02:21.384Z,21.24
2018-05-31T00:02:25.643Z,21.27
2018-05-31T00:02:30.011Z,21.28
2018-05-31T00:02:34.372Z,21.27
2018-05-31T00:02:38.620Z,21.31
2018-05-31T00:02:42.767Z,21.27
2018-05-31T00:02:47.026Z,21.26
2018-05-31T00:02:51.304Z,21.24
2018-05-31T00:02:55.592Z,21.28
2018-05-31T00:02:59.973Z,21.27
2018-05-31T00:03:04.241Z,21.3
2018-05-31T00:03:08.280Z,21.28
2018-05-31T00:03:12.554Z,21.26
2018-05-31T00:03:18.153Z,21.3
2018-05-31T00:03:23.152Z,21.27
2018-05-31T00:03:27.431Z,21.27
2018-05-31T00:03:31.703Z,21.3
2018-05-31T00:03:35.970Z,21.27
2018-05-31T00:03:40.233Z,21.28
2018-05-31T00:03:44.500Z,21.26
2018-05-31T00:03:48.752Z,21.22
2018-05-31T00:03:53.117Z,21.18
2018-05-31T00:03:57.416Z,21.24
2018-05-31T00:04:01.562Z,21.22
2018-05-31T00:04:05.761Z,21.26
2018-05-31T00:04:09.896Z,21.24
2018-05-31T00:04:14.062Z,21.27
2018-05-31T00:04:18.217Z,21.22
2018-05-31T00:04:22.948Z,21.24
2018-05-31T00:04:28.841Z,21.22
2018-05-31T00:04:33.131Z,21.27
2018-05-31T00:04:37.398Z,21.22
2018-05-31T00:04:41.778Z,21.22
2018-05-31T00:04:46.058Z,21.28
2018-05-31T00:04:50.444Z,21.19
2018-05-31T00:04:54.606Z,21.24
2018-05-31T00:04:58.740Z,21.19
2018-05-31T00:05:02.776Z,21.24
2018-05-31T00:05:06.955Z,21.16
2018-05-31T00:05:11.240Z,21.21
2018-05-31T00:05:15.388Z,21.24
2018-05-31T00:05:19.654Z,21.24
2018-05-31T00:05:23.908Z,21.16
2018-05-31T00:05:28.297Z,21.26
2018-05-31T00:05:34.914Z,21.21
2018-05-31T00:05:39.183Z,21.21
2018-05-31T00:05:43.222Z,21.19
2018-05-31T00:05:47.608Z,21.24
2018-05-31T00:05:51.747Z,21.16
2018-05-31T00:05:56.112Z,21.16
2018-05-31T00:06:00.275Z,21.16
2018-05-31T00:06:04.556Z,21.18
2018-05-31T00:06:08.587Z,21.21
2018-05-31T00:06:12.984Z,21.24
2018-05-31T00:06:17.263Z,21.18
2018-05-31T00:06:21.414Z,21.16
2018-05-31T00:06:25.683Z,21.21
2018-05-31T00:06:29.834Z,21.18
2018-05-31T00:06:34.097Z,21.24
2018-05-31T00:06:39.434Z,21.15
2018-05-31T00:06:44.792Z,21.08
2018-05-31T00:06:49.107Z,21.06
2018-05-31T00:06:53.497Z,21.11
2018-05-31T00:06:57.759Z,21.09
2018-05-31T00:07:02.009Z,21.13
2018-05-31T00:07:06.046Z,21.09
2018-05-31T00:07:10.313Z,21.12
2018-05-31T00:07:14.340Z,21.11
2018-05-31T00:07:18.594Z,21.11
2018-05-31T00:07:22.744Z,21.11
2018-05-31T00:07:26.992Z,21.13
2018-05-31T00:07:31.375Z,21.15
2018-05-31T00:07:35.524Z,21.12
2018-05-31T00:07:39.916Z,21.18
2018-05-31T00:07:44.738Z,21.08
2018-05-31T00:07:50.322Z,21.15
2018-05-31T00:07:54.472Z,21.15
2018-05-31T00:07:58.752Z,21.12
2018-05-31T00:08:02.894Z,21.13
2018-05-31T00:08:07.030Z,21.12
2018-05-31T00:08:11.294Z,21.13
2018-05-31T00:08:15.312Z,21.09
2018-05-31T00:08:19.583Z,21.15
2018-05-31T00:08:23.997Z,21.08
2018-05-31T00:08:28.153Z,21.19
2018-05-31T00:08:32.291Z,21.15
2018-05-31T00:08:36.554Z,21.15
2018-05-31T00:08:40.953Z,21.15
2018-05-31T00:08:45.216Z,21.15
2018-05-31T00:08:49.513Z,21.18
2018-05-31T00:08:54.788Z,21.12
2018-05-31T00:08:59.596Z,21.06
2018-05-31T00:09:03.860Z,21.15
2018-05-31T00:09:08.135Z,21.15
2018-05-31T00:09:12.168Z,21.06
2018-05-31T00:09:16.555Z,21.08
2018-05-31T00:09:20.816Z,21.08
2018-05-31T00:09:24.954Z,21.06
2018-05-31T00:09:28.991Z,21.05
2018-05-31T00:09:33.144Z,21.11
2018-05-31T00:09:37.522Z,21.13
2018-05-31T00:09:41.555Z,21.09
2018-05-31T00:09:45.847Z,21.08
2018-05-31T00:09:50.108Z,21.05
2018-05-31T00:09:54.130Z,21.12
2018-05-31T00:09:59.089Z,21.12
2018-05-31T00:10:04.866Z,21.05
2018-05-31T00:10:09.011Z,21.05
2018-05-31T00:10:13.288Z,21.05
2018-05-31T00:10:17.591Z,21.05
2018-05-31T00:10:21.513Z,21.09
2018-05-31T00:10:25.780Z,21.06
2018-05-31T00:10:29.952Z,20.98
2018-05-31T00:10:34.378Z,21.06
2018-05-31T00:10:38.511Z,21.09
2018-05-31T00:10:42.800Z,21.03
2018-05-31T00:10:47.047Z,20.97
2018-05-31T00:10:51.191Z,21.01
2018-05-31T00:10:55.455Z,20.98
2018-05-31T00:10:59.487Z,21
2018-05-31T00:11:03.746Z,21
2018-05-31T00:11:09.808Z,21.05
2018-05-31T00:11:14.557Z,21
2018-05-31T00:11:18.824Z,20.98
2018-05-31T00:11:23.196Z,20.97
2018-05-31T00:11:27.358Z,21
2018-05-31T00:11:31.383Z,21.09
2018-05-31T00:11:35.516Z,20.97
2018-05-31T00:11:39.789Z,20.94
2018-05-31T00:11:44.171Z,21
2018-05-31T00:11:48.461Z,20.97
2018-05-31T00:11:52.735Z,20.98
2018-05-31T00:11:56.777Z,20.96
2018-05-31T00:12:01.036Z,20.96
2018-05-31T00:12:05.291Z,20.93
2018-05-31T00:12:09.441Z,20.94
2018-05-31T00:12:14.412Z,21.01
2018-05-31T00:12:20.302Z,20.98
2018-05-31T00:12:24.325Z,20.96
2018-05-31T00:12:28.349Z,20.88
2018-05-31T00:12:32.621Z,21.01
2018-05-31T00:12:36.904Z,20.93
2018-05-31T00:12:41.065Z,20.87
2018-05-31T00:12:45.341Z,20.91
2018-05-31T00:12:49.717Z,20.85
2018-05-31T00:12:53.851Z,20.83
2018-05-31T00:12:58.116Z,20.83
2018-05-31T00:13:02.430Z,20.83
2018-05-31T00:13:06.566Z,20.91
2018-05-31T00:13:10.824Z,20.87
2018-05-31T00:13:14.966Z,20.96
2018-05-31T00:13:19.237Z,20.91
2018-05-31T00:13:25.096Z,20.91
2018-05-31T00:13:29.987Z,20.87
2018-05-31T00:13:34.157Z,20.88
2018-05-31T00:13:38.452Z,20.91
2018-05-31T00:13:42.491Z,20.88
2018-05-31T00:13:46.770Z,20.88
2018-05-31T00:13:51.026Z,20.9
2018-05-31T00:13:55.388Z,20.83
2018-05-31T00:13:59.791Z,20.87
2018-05-31T00:14:03.998Z,20.87
2018-05-31T00:14:08.140Z,20.83
2018-05-31T00:14:12.527Z,20.81
2018-05-31T00:14:16.899Z,20.87
2018-05-31T00:14:21.284Z,20.87
2018-05-31T00:14:25.679Z,20.78
2018-05-31T00:14:30.301Z,20.76
2018-05-31T00:14:35.796Z,20.79
2018-05-31T00:14:40.195Z,20.79
2018-05-31T00:14:44.463Z,20.78
2018-05-31T00:14:48.366Z,20.72
2018-05-31T00:14:52.515Z,20.83
2018-05-31T00:14:56.673Z,20.73
2018-05-31T00:15:00.829Z,20.76
2018-05-31T00:15:04.982Z,20.75
2018-05-31T00:15:09.255Z,20.75
2018-05-31T00:15:13.619Z,20.76
2018-05-31T00:15:17.762Z,20.75
2018-05-31T00:15:22.043Z,20.75
2018-05-31T00:15:26.307Z,20.72
2018-05-31T00:15:30.347Z,20.73
2018-05-31T00:15:34.622Z,20.72
2018-05-31T00:15:40.288Z,20.73
2018-05-31T00:15:44.957Z,20.71
2018-05-31T00:15:49.101Z,20.76
2018-05-31T00:15:53.252Z,20.75
2018-05-31T00:15:57.673Z,20.73
2018-05-31T00:16:01.967Z,20.75
2018-05-31T00:16:06.126Z,20.76
2018-05-31T00:16:10.077Z,20.72
2018-05-31T00:16:14.228Z,20.73
2018-05-31T00:16:18.623Z,20.73
2018-05-31T00:16:23.009Z,20.73
2018-05-31T00:16:27.259Z,20.71
2018-05-31T00:16:31.409Z,20.75
2018-05-31T00:16:35.562Z,20.69
2018-05-31T00:16:39.823Z,20.73
2018-05-31T00:16:44.427Z,20.78
2018-05-31T00:16:50.349Z,20.71
2018-05-31T00:16:54.642Z,20.75
2018-05-31T00:16:58.798Z,20.68
2018-05-31T00:17:03.004Z,20.66
2018-05-31T00:17:07.265Z,20.69
2018-05-31T00:17:11.531Z,20.72
2018-05-31T00:17:15.681Z,20.64
2018-05-31T00:17:19.834Z,20.68
2018-05-31T00:17:24.005Z,20.69
2018-05-31T00:17:28.295Z,20.61
2018-05-31T00:17:32.327Z,20.66
2018-05-31T00:17:36.477Z,20.66
2018-05-31T00:17:40.500Z,20.6
2018-05-31T00:17:44.526Z,20.57
2018-05-31T00:17:48.342Z,20.64
2018-05-31T00:17:52.839Z,20.64
2018-05-31T00:17:57.908Z,20.63
2018-05-31T00:18:02.062Z,20.57
2018-05-31T00:18:06.228Z,20.57
2018-05-31T00:18:10.499Z,20.57
2018-05-31T00:18:14.765Z,20.57
2018-05-31T00:18:19.154Z,20.56
2018-05-31T00:18:23.462Z,20.58
2018-05-31T00:18:27.851Z,20.61
2018-05-31T00:18:31.888Z,20.57
2018-05-31T00:18:36.045Z,20.57
2018-05-31T00:18:40.323Z,20.53
2018-05-31T00:18:44.717Z,20.6
2018-05-31T00:18:48.879Z,20.57
2018-05-31T00:18:53.259Z,20.56
2018-05-31T00:18:57.962Z,20.56
2018-05-31T00:19:03.779Z,20.46
2018-05-31T00:19:08.037Z,20.48
2018-05-31T00:19:12.431Z,20.51
2018-05-31T00:19:16.694Z,20.51
2018-05-31T00:19:20.847Z,20.54
2018-05-31T00:19:24.996Z,20.5
2018-05-31T00:19:29.250Z,20.46
2018-05-31T00:19:33.300Z,20.48
2018-05-31T00:19:37.673Z,20.5
2018-05-31T00:19:41.812Z,20.48
2018-05-31T00:19:46.088Z,20.42
2018-05-31T00:19:50.475Z,20.46
2018-05-31T00:19:54.867Z,20.5
2018-05-31T00:19:59.150Z,20.46
2018-05-31T00:20:03.425Z,20.4
2018-05-31T00:20:09.780Z,20.42
2018-05-31T00:20:14.283Z,20.48
2018-05-31T00:20:18.653Z,20.35
2018-05-31T00:20:22.919Z,20.4
2018-05-31T00:20:27.187Z,20.35
2018-05-31T00:20:31.472Z,20.34
2018-05-31T00:20:35.864Z,20.4
2018-05-31T00:20:40.244Z,20.48
2018-05-31T00:20:44.629Z,20.44
2018-05-31T00:20:48.894Z,20.35
2018-05-31T00:20:53.281Z,20.37
2018-05-31T00:20:57.531Z,20.38
2018-05-31T00:21:01.813Z,20.38
2018-05-31T00:21:05.980Z,20.35
2018-05-31T00:21:10.356Z,20.44
2018-05-31T00:21:16.188Z,20.4
2018-05-31T00:21:21.233Z,20.38
2018-05-31T00:21:25.505Z,20.33
2018-05-31T00:21:29.417Z,20.41
2018-05-31T00:21:33.555Z,20.38
2018-05-31T00:21:37.635Z,20.35
2018-05-31T00:21:41.671Z,20.35
2018-05-31T00:21:45.954Z,20.38
2018-05-31T00:21:50.225Z,20.26
2018-05-31T00:21:54.613Z,20.25
2018-05-31T00:21:58.884Z,20.37
2018-05-31T00:22:03.044Z,20.25
2018-05-31T00:22:07.207Z,20.3
2018-05-31T00:22:11.342Z,20.3
2018-05-31T00:22:15.680Z,20.33
2018-05-31T00:22:20.478Z,20.3
2018-05-31T00:22:26.582Z,20.27
2018-05-31T00:22:30.961Z,20.3
2018-05-31T00:22:35.350Z,20.33
2018-05-31T00:22:39.733Z,20.3
2018-05-31T00:22:43.878Z,20.26
2018-05-31T00:22:47.897Z,20.27
2018-05-31T00:22:52.047Z,20.3
2018-05-31T00:22:56.312Z,20.34
2018-05-31T00:23:00.339Z,20.3
2018-05-31T00:23:04.708Z,20.22
2018-05-31T00:23:08.751Z,20.31
2018-05-31T00:23:12.886Z,20.27
2018-05-31T00:23:17.266Z,20.33
2018-05-31T00:23:21.452Z,20.27
2018-05-31T00:23:25.592Z,20.27
2018-05-31T00:23:30.783Z,20.17
2018-05-31T00:23:35.420Z,20.34
2018-05-31T00:23:39.822Z,20.3
2018-05-31T00:23:44.085Z,20.22
2018-05-31T00:23:48.349Z,20.23
2018-05-31T00:23:52.607Z,20.22
2018-05-31T00:23:56.976Z,20.19
2018-05-31T00:24:01.267Z,20.22
2018-05-31T00:24:05.611Z,20.17
2018-05-31T00:24:09.880Z,20.17
2018-05-31T00:24:14.160Z,20.26
2018-05-31T00:24:18.423Z,20.16
2018-05-31T00:24:22.675Z,20.2
2018-05-31T00:24:27.074Z,20.17
2018-05-31T00:24:31.225Z,20.13
2018-05-31T00:24:36.734Z,20.22
2018-05-31T00:24:41.681Z,20.22
2018-05-31T00:24:46.101Z,20.16
2018-05-31T00:24:50.505Z,20.2
2018-05-31T00:24:54.656Z,20.22
2018-05-31T00:24:58.815Z,20.19
2018-05-31T00:25:03.299Z,20.17
2018-05-31T00:25:07.915Z,20.2
2018-05-31T00:25:12.578Z,20.16
2018-05-31T00:25:17.479Z,20.15
2018-05-31T00:25:21.742Z,20.17
2018-05-31T00:25:26.129Z,20.15
2018-05-31T00:25:30.386Z,20.23
2018-05-31T00:25:34.796Z,20.19
2018-05-31T00:25:38.721Z,20.26
2018-05-31T00:25:44.100Z,20.16
2018-05-31T00:25:49.862Z,20.16
2018-05-31T00:25:54.016Z,20.17
2018-05-31T00:25:58.386Z,20.17
2018-05-31T00:26:02.672Z,20.16
2018-05-31T00:26:06.773Z,20.16
2018-05-31T00:26:11.232Z,20.15
2018-05-31T00:26:15.510Z,20.15
2018-05-31T00:26:19.546Z,20.13
2018-05-31T00:26:23.740Z,20.17
2018-05-31T00:26:27.996Z,20.19
2018-05-31T00:26:31.897Z,20.2
2018-05-31T00:26:35.911Z,20.17
2018-05-31T00:26:40.169Z,20.19
2018-05-31T00:26:44.311Z,20.17
2018-05-31T00:26:48.574Z,20.17
2018-05-31T00:26:55.329Z,20.17
2018-05-31T00:26:59.595Z,20.17
2018-05-31T00:27:03.849Z,20.17
2018-05-31T00:27:07.760Z,20.12
2018-05-31T00:27:12.155Z,20.15
2018-05-31T00:27:16.170Z,20.15
2018-05-31T00:27:20.424Z,20.2
2018-05-31T00:27:24.682Z,20.08
2018-05-31T00:27:28.834Z,20.15
2018-05-31T00:27:33.093Z,20.17
2018-05-31T00:27:37.360Z,20.17
2018-05-31T00:27:41.738Z,20.13
2018-05-31T00:27:45.990Z,20.15
2018-05-31T00:27:50.249Z,20.1
2018-05-31T00:27:54.616Z,20.12
2018-05-31T00:28:00.051Z,20.17
2018-05-31T00:28:05.355Z,20.1
2018-05-31T00:28:09.749Z,20.17
2018-05-31T00:28:14.150Z,20.12
2018-05-31T00:28:18.313Z,20.08
2018-05-31T00:28:22.586Z,20.04
2018-05-31T00:28:26.981Z,20.12
2018-05-31T00:28:31.133Z,20.04
2018-05-31T00:28:35.415Z,20.12
2018-05-31T00:28:39.547Z,20.1
2018-05-31T00:28:43.805Z,20.1
2018-05-31T00:28:48.196Z,20.07
2018-05-31T00:28:52.443Z,20
2018-05-31T00:28:56.696Z,20.02
2018-05-31T00:29:00.719Z,20.07
2018-05-31T00:29:05.468Z,20.08
2018-05-31T00:29:11.360Z,20.08
2018-05-31T00:29:15.751Z,20.12
2018-05-31T00:29:19.782Z,20.08
2018-05-31T00:29:24.043Z,20.05
2018-05-31T00:29:28.191Z,20.1
2018-05-31T00:29:32.452Z,20.02
2018-05-31T00:29:36.601Z,20.05
2018-05-31T00:29:40.985Z,20.04
2018-05-31T00:29:45.259Z,20.08
2018-05-31T00:29:49.504Z,19.94
2018-05-31T00:29:53.773Z,20
2018-05-31T00:29:57.912Z,20.07
2018-05-31T00:30:02.058Z,19.97
2018-05-31T00:30:06.190Z,20.02
2018-05-31T00:30:10.449Z,20
2018-05-31T00:30:16.862Z,20
2018-05-31T00:30:21.206Z,20
2018-05-31T00:30:25.122Z,20.01
2018-05-31T00:30:29.365Z,20.01
2018-05-31T00:30:33.637Z,20
2018-05-31T00:30:37.918Z,20
2018-05-31T00:30:42.190Z,19.97
2018-05-31T00:30:46.446Z,19.92
2018-05-31T00:30:50.840Z,20.01
2018-05-31T00:30:55.251Z,19.94
2018-05-31T00:30:59.637Z,19.94
2018-05-31T00:31:03.824Z,19.92
2018-05-31T00:31:08.093Z,19.92
2018-05-31T00:31:12.476Z,19.98
2018-05-31T00:31:16.772Z,19.94
2018-05-31T00:31:21.731Z,20
2018-05-31T00:31:27.196Z,20
2018-05-31T00:31:31.452Z,19.94
2018-05-31T00:31:35.604Z,19.95
2018-05-31T00:31:39.750Z,19.94
2018-05-31T00:31:44.004Z,19.92
2018-05-31T00:31:48.280Z,19.9
2018-05-31T00:31:52.310Z,19.95
2018-05-31T00:31:56.221Z,19.92
2018-05-31T00:32:00.473Z,19.94
2018-05-31T00:32:04.374Z,19.97
2018-05-31T00:32:08.630Z,20.02
2018-05-31T00:32:12.887Z,19.9
2018-05-31T00:32:17.177Z,19.9
2018-05-31T00:32:21.557Z,20.01
2018-05-31T00:32:25.701Z,19.97
2018-05-31T00:32:32.020Z,19.95
2018-05-31T00:32:36.287Z,19.89
2018-05-31T00:32:40.707Z,19.86
2018-05-31T00:32:45.109Z,19.94
2018-05-31T00:32:49.380Z,19.86
2018-05-31T00:32:53.656Z,19.87
2018-05-31T00:32:57.920Z,19.89
2018-05-31T00:33:01.949Z,19.95
2018-05-31T00:33:06.332Z,19.86
2018-05-31T00:33:10.244Z,19.97
2018-05-31T00:33:14.507Z,19.94
2018-05-31T00:33:18.898Z,19.85
2018-05-31T00:33:22.877Z,19.9
2018-05-31T00:33:27.247Z,19.87
2018-05-31T00:33:31.645Z,19.89
2018-05-31T00:33:36.455Z,19.83
2018-05-31T00:33:41.964Z,19.87
2018-05-31T00:33:46.218Z,19.87
2018-05-31T00:33:50.378Z,19.83
2018-05-31T00:33:54.406Z,19.79
2018-05-31T00:33:58.658Z,19.83
2018-05-31T00:34:02.809Z,19.87
2018-05-31T00:34:07.195Z,19.78
2018-05-31T00:34:11.596Z,19.86
2018-05-31T00:34:15.854Z,19.86
2018-05-31T00:34:19.759Z,19.8
2018-05-31T00:34:24.023Z,19.75
2018-05-31T00:34:28.045Z,19.8
2018-05-31T00:34:32.406Z,19.85
2018-05-31T00:34:36.667Z,19.79
2018-05-31T00:34:40.815Z,19.76
2018-05-31T00:34:47.249Z,19.92
2018-05-31T00:34:51.622Z,19.78
2018-05-31T00:34:55.766Z,19.78
2018-05-31T00:35:00.028Z,19.78
2018-05-31T00:35:04.300Z,19.8
2018-05-31T00:35:08.570Z,19.8
2018-05-31T00:35:12.839Z,19.78
2018-05-31T00:35:16.856Z,19.87
2018-05-31T00:35:21.150Z,19.8
2018-05-31T00:35:25.173Z,19.8
2018-05-31T00:35:29.427Z,19.78
2018-05-31T00:35:33.698Z,19.78
2018-05-31T00:35:37.964Z,19.76
2018-05-31T00:35:42.000Z,19.79
2018-05-31T00:35:46.273Z,19.86
2018-05-31T00:35:51.504Z,19.75
2018-05-31T00:35:56.571Z,19.79
2018-05-31T00:36:00.600Z,19.79
2018-05-31T00:36:05.080Z,19.79
2018-05-31T00:36:09.098Z,19.79
2018-05-31T00:36:13.363Z,19.79
2018-05-31T00:36:17.625Z,19.78
2018-05-31T00:36:21.650Z,19.87
2018-05-31T00:36:26.023Z,19.78
2018-05-31T00:36:30.287Z,19.76
2018-05-31T00:36:34.659Z,19.76
2018-05-31T00:36:38.936Z,19.79
2018-05-31T00:36:43.092Z,19.75
2018-05-31T00:36:47.475Z,19.78
2018-05-31T00:36:51.855Z,19.83
2018-05-31T00:36:55.893Z,19.8
2018-05-31T00:37:02.372Z,19.78
2018-05-31T00:37:06.512Z,19.78
2018-05-31T00:37:10.784Z,19.76
2018-05-31T00:37:15.173Z,19.78
2018-05-31T00:37:19.552Z,19.76
2018-05-31T00:37:23.815Z,19.78
2018-05-31T00:37:28.089Z,19.8
2018-05-31T00:37:32.236Z,19.64
2018-05-31T00:37:36.414Z,19.75
2018-05-31T00:37:40.805Z,19.78
2018-05-31T00:37:45.198Z,19.64
2018-05-31T00:37:49.355Z,19.72
2018-05-31T00:37:53.648Z,19.64
2018-05-31T00:37:57.786Z,19.64
2018-05-31T00:38:02.062Z,19.7
2018-05-31T00:38:08.996Z,19.75
2018-05-31T00:38:13.388Z,19.79
2018-05-31T00:38:17.523Z,19.71
2018-05-31T00:38:21.694Z,19.68
2018-05-31T00:38:25.952Z,19.65
2018-05-31T00:38:29.865Z,19.68
2018-05-31T00:38:34.135Z,19.65
2018-05-31T00:38:38.287Z,19.7
2018-05-31T00:38:42.567Z,19.67
2018-05-31T00:38:46.819Z,19.64
2018-05-31T00:38:51.197Z,19.61
2018-05-31T00:38:55.466Z,19.7
2018-05-31T00:38:59.832Z,19.67
2018-05-31T00:39:03.977Z,19.72
2018-05-31T00:39:08.288Z,19.78
2018-05-31T00:39:14.597Z,19.7
2018-05-31T00:39:19.475Z,19.61
2018-05-31T00:39:23.799Z,19.64
2018-05-31T00:39:27.476Z,19.64
2018-05-31T00:39:31.755Z,19.78
2018-05-31T00:39:35.888Z,19.64
2018-05-31T00:39:40.028Z,19.62
2018-05-31T00:39:44.304Z,19.64
2018-05-31T00:39:48.592Z,19.65
2018-05-31T00:39:52.846Z,19.61
2018-05-31T00:39:56.975Z,19.65
2018-05-31T00:40:01.352Z,19.64
2018-05-31T00:40:05.497Z,19.65
2018-05-31T00:40:09.652Z,19.61
2018-05-31T00:40:13.922Z,19.71
2018-05-31T00:40:19.324Z,19.64
2018-05-31T00:40:24.966Z,19.67
2018-05-31T00:40:29.107Z,19.67
2018-05-31T00:40:33.389Z,19.71
2018-05-31T00:40:37.641Z,19.67
2018-05-31T00:40:41.924Z,19.62
2018-05-31T00:40:45.954Z,19.71
2018-05-31T00:40:50.210Z,19.65
2018-05-31T00:40:54.588Z,19.7
2018-05-31T00:40:58.977Z,19.68
2018-05-31T00:41:03.234Z,19.7
2018-05-31T00:41:07.512Z,19.67
2018-05-31T00:41:11.805Z,19.62
2018-05-31T00:41:15.960Z,19.72
2018-05-31T00:41:20.232Z,19.7
2018-05-31T00:41:24.482Z,19.68
2018-05-31T00:41:31.162Z,19.67
2018-05-31T00:41:35.433Z,19.67
2018-05-31T00:41:39.813Z,19.65
2018-05-31T00:41:44.185Z,19.65
2018-05-31T00:41:48.325Z,19.7
2018-05-31T00:41:52.733Z,19.61
2018-05-31T00:41:57.003Z,19.65
2018-05-31T00:42:01.275Z,19.7
2018-05-31T00:42:05.455Z,19.67
2018-05-31T00:42:09.571Z,19.68
2018-05-31T00:42:13.832Z,19.65
2018-05-31T00:42:18.084Z,19.7
2018-05-31T00:42:22.462Z,19.71
2018-05-31T00:42:26.485Z,19.6
2018-05-31T00:42:30.513Z,19.65
2018-05-31T00:42:36.929Z,19.68
2018-05-31T00:42:41.585Z,19.64
2018-05-31T00:42:45.628Z,19.68
2018-05-31T00:42:50.016Z,19.65
2018-05-31T00:42:54.170Z,19.64
2018-05-31T00:42:58.421Z,19.65
2018-05-31T00:43:02.803Z,19.68
2018-05-31T00:43:06.842Z,19.68
2018-05-31T00:43:10.985Z,19.61
2018-05-31T00:43:15.262Z,19.64
2018-05-31T00:43:19.652Z,19.64
2018-05-31T00:43:24.046Z,19.68
2018-05-31T00:43:28.412Z,19.68
2018-05-31T00:43:32.560Z,19.65
2018-05-31T00:43:36.813Z,19.68
2018-05-31T00:43:41.907Z,19.61
2018-05-31T00:43:47.196Z,19.7
2018-05-31T00:43:51.331Z,19.64
2018-05-31T00:43:55.464Z,19.65
2018-05-31T00:43:59.854Z,19.64
2018-05-31T00:44:04.098Z,19.65
2018-05-31T00:44:08.020Z,19.65
2018-05-31T00:44:12.403Z,19.65
2018-05-31T00:44:16.684Z,19.67
2018-05-31T00:44:20.824Z,19.68
2018-05-31T00:44:25.212Z,19.64
2018-05-31T00:44:29.518Z,19.61
2018-05-31T00:44:33.793Z,19.67
2018-05-31T00:44:38.168Z,19.62
2018-05-31T00:44:42.532Z,19.65
2018-05-31T00:44:47.318Z,19.68
2018-05-31T00:44:52.782Z,19.64
2018-05-31T00:44:57.143Z,19.62
2018-05-31T00:45:01.285Z,19.64
2018-05-31T00:45:05.199Z,19.67
2018-05-31T00:45:09.479Z,19.67
2018-05-31T00:45:13.616Z,19.64
2018-05-31T00:45:18.001Z,19.64
2018-05-31T00:45:22.146Z,19.64
2018-05-31T00:45:26.323Z,19.68
2018-05-31T00:45:30.450Z,19.64
2018-05-31T00:45:34.724Z,19.6
2018-05-31T00:45:38.885Z,19.64
2018-05-31T00:45:43.146Z,19.61
2018-05-31T00:45:47.396Z,19.62
2018-05-31T00:45:51.715Z,19.67
2018-05-31T00:45:57.982Z,19.64
2018-05-31T00:46:02.788Z,19.62
2018-05-31T00:46:07.163Z,19.7
2018-05-31T00:46:11.319Z,19.57
2018-05-31T00:46:15.581Z,19.6
2018-05-31T00:46:19.853Z,19.61
2018-05-31T00:46:24.121Z,19.68
2018-05-31T00:46:28.381Z,19.6
2018-05-31T00:46:32.620Z,19.64
2018-05-31T00:46:37.002Z,19.58
2018-05-31T00:46:41.266Z,19.55
2018-05-31T00:46:45.659Z,19.67
2018-05-31T00:46:49.906Z,19.67
2018-05-31T00:46:53.930Z,19.64
2018-05-31T00:46:58.098Z,19.67
2018-05-31T00:47:03.912Z,19.53
2018-05-31T00:47:08.821Z,19.64
2018-05-31T00:47:12.959Z,19.64
2018-05-31T00:47:17.106Z,19.64
2018-05-31T00:47:21.244Z,19.62
2018-05-31T00:47:25.647Z,19.65
2018-05-31T00:47:29.784Z,19.6
2018-05-31T00:47:34.045Z,19.57
2018-05-31T00:47:38.191Z,19.53
2018-05-31T00:47:42.349Z,19.64
2018-05-31T00:47:46.515Z,19.62
2018-05-31T00:47:50.717Z,19.6
2018-05-31T00:47:55.109Z,19.65
2018-05-31T00:47:59.359Z,19.55
2018-05-31T00:48:03.832Z,19.55
2018-05-31T00:48:08.106Z,19.57
2018-05-31T00:48:14.900Z,19.57
2018-05-31T00:48:19.290Z,19.52
2018-05-31T00:48:23.553Z,19.55
2018-05-31T00:48:27.823Z,19.57
2018-05-31T00:48:31.843Z,19.64
2018-05-31T00:48:36.114Z,19.62
2018-05-31T00:48:40.250Z,19.53
2018-05-31T00:48:44.688Z,19.55
2018-05-31T00:48:49.082Z,19.65
2018-05-31T00:48:53.112Z,19.64
2018-05-31T00:48:57.258Z,19.53
2018-05-31T00:49:01.645Z,19.6
2018-05-31T00:49:05.917Z,19.64
2018-05-31T00:49:10.215Z,19.53
2018-05-31T00:49:14.620Z,19.58
2018-05-31T00:49:22.800Z,19.53
2018-05-31T00:49:26.953Z,19.58
2018-05-31T00:49:30.974Z,19.6
2018-05-31T00:49:35.361Z,19.52
2018-05-31T00:49:39.764Z,19.52
2018-05-31T00:49:44.023Z,19.58
2018-05-31T00:49:48.045Z,19.61
2018-05-31T00:49:52.478Z,19.5
2018-05-31T00:49:56.620Z,19.53
2018-05-31T00:50:00.885Z,19.61
2018-05-31T00:50:05.309Z,19.58
2018-05-31T00:50:09.583Z,19.57
2018-05-31T00:50:13.878Z,19.53
2018-05-31T00:50:18.270Z,19.55
2018-05-31T00:50:22.665Z,19.61
2018-05-31T00:50:29.359Z,19.53
2018-05-31T00:50:33.745Z,19.53
2018-05-31T00:50:38.142Z,19.58
2018-05-31T00:50:42.289Z,19.52
2018-05-31T00:50:46.686Z,19.55
2018-05-31T00:50:50.944Z,19.57
2018-05-31T00:50:55.096Z,19.53
2018-05-31T00:50:59.370Z,19.53
2018-05-31T00:51:03.391Z,19.53
2018-05-31T00:51:07.429Z,19.52
2018-05-31T00:51:11.452Z,19.58
2018-05-31T00:51:15.597Z,19.57
2018-05-31T00:51:19.844Z,19.58
2018-05-31T00:51:24.177Z,19.52
2018-05-31T00:51:28.634Z,19.5
2018-05-31T00:51:34.856Z,19.5
2018-05-31T00:51:39.552Z,19.53
2018-05-31T00:51:43.697Z,19.6
2018-05-31T00:51:47.983Z,19.58
2018-05-31T00:51:52.123Z,19.53
2018-05-31T00:51:56.373Z,19.5
2018-05-31T00:52:00.744Z,19.49
2018-05-31T00:52:05.017Z,19.52
2018-05-31T00:52:09.279Z,19.55
2018-05-31T00:52:13.526Z,19.53
2018-05-31T00:52:17.754Z,19.55
2018-05-31T00:52:22.033Z,19.6
2018-05-31T00:52:26.393Z,19.58
2018-05-31T00:52:30.632Z,19.55
2018-05-31T00:52:34.891Z,19.53
2018-05-31T00:52:40.897Z,19.52
2018-05-31T00:52:46.337Z,19.49
2018-05-31T00:52:50.602Z,19.57
2018-05-31T00:52:54.872Z,19.61
2018-05-31T00:52:59.014Z,19.6
2018-05-31T00:53:03.267Z,19.55
2018-05-31T00:53:07.405Z,19.58
2018-05-31T00:53:11.786Z,19.55
2018-05-31T00:53:15.807Z,19.5
2018-05-31T00:53:19.938Z,19.57
2018-05-31T00:53:24.314Z,19.57
2018-05-31T00:53:28.581Z,19.5
2018-05-31T00:53:32.717Z,19.53
2018-05-31T00:53:37.088Z,19.5
2018-05-31T00:53:41.470Z,19.55
2018-05-31T00:53:46.034Z,19.55
2018-05-31T00:53:51.504Z,19.57
2018-05-31T00:53:55.885Z,19.57
2018-05-31T00:54:00.144Z,19.53
2018-05-31T00:54:04.780Z,19.55
2018-05-31T00:54:08.916Z,19.6
2018-05-31T00:54:13.306Z,19.53
2018-05-31T00:54:17.557Z,19.57
2018-05-31T00:54:21.977Z,19.52
2018-05-31T00:54:26.235Z,19.61
2018-05-31T00:54:30.495Z,19.52
2018-05-31T00:54:34.863Z,19.52
2018-05-31T00:54:39.107Z,19.55
2018-05-31T00:54:43.496Z,19.47
2018-05-31T00:54:47.522Z,19.53
2018-05-31T00:54:51.775Z,19.53
2018-05-31T00:54:58.666Z,19.52
2018-05-31T00:55:03.054Z,19.57
2018-05-31T00:55:07.211Z,19.53
2018-05-31T00:55:11.381Z,19.52
2018-05-31T00:55:15.776Z,19.53
2018-05-31T00:55:19.798Z,19.52
2018-05-31T00:55:23.927Z,19.61
2018-05-31T00:55:28.198Z,19.49
2018-05-31T00:55:32.350Z,19.55
2018-05-31T00:55:36.599Z,19.52
2018-05-31T00:55:40.861Z,19.5
2018-05-31T00:55:45.127Z,19.52
2018-05-31T00:55:49.267Z,19.58
2018-05-31T00:55:53.419Z,19.55
2018-05-31T00:55:57.670Z,19.5
2018-05-31T00:56:03.022Z,19.55
2018-05-31T00:56:08.521Z,19.58
2018-05-31T00:56:12.777Z,19.57
2018-05-31T00:56:16.907Z,19.55
2018-05-31T00:56:21.062Z,19.52
2018-05-31T00:56:25.314Z,19.57
2018-05-31T00:56:29.719Z,19.52
2018-05-31T00:56:33.620Z,19.52
2018-05-31T00:56:37.889Z,19.53
2018-05-31T00:56:42.014Z,19.5